Terminal Aerodrome Forecast
Issued by NWS

Home | Current Version | Previous Version | Text Only | Print | Product List | Glossary On
Versions: 1 2 3 4 5 6 7 8 9 10 11 12 13 14 15 16 17 18 19 20 21 22 23 24 25 26 27 28 29 30 31 32 33 34
000
FTAK31 PAFA 291740
TAFASC
TAF
PASC 291740Z 2918/3018 20010KT P6SM BKN070
     FM292000 11010KT P6SM BKN040 BKN070
     FM300000 07010KT P6SM SCT015 BKN040
     FM300600 06010KT 6SM BR OVC015
     FM300900 07010KT 2SM BR BKN007 OVC015=

USA.gov is the U.S. government's official web portal to all federal, state and local government web resources and services.